createdAt,value
2023-04-09T00:01:39.041Z,5.358887
2023-04-09T00:05:04.274Z,5.39917
2023-04-09T00:08:29.536Z,5.489807
2023-04-09T00:11:54.802Z,5.459595
2023-04-09T00:15:28.096Z,5.53009
2023-04-09T00:18:45.293Z,5.570374
2023-04-09T00:22:10.530Z,5.53009
2023-04-09T00:25:35.793Z,5.600586
2023-04-09T00:29:01.051Z,5.600586
2023-04-09T00:32:26.339Z,5.580444
2023-04-09T00:35:51.549Z,5.489807
2023-04-09T00:39:16.836Z,5.429382
2023-04-09T00:42:42.126Z,5.328674
2023-04-09T00:46:07.443Z,5.217896
2023-04-09T00:49:32.682Z,5.127258
2023-04-09T00:52:57.910Z,5.127258
2023-04-09T00:56:23.153Z,5.197754
2023-04-09T00:59:48.441Z,5.197754
2023-04-09T01:03:13.851Z,5.217896
2023-04-09T01:06:38.955Z,5.26825
2023-04-09T01:10:04.175Z,5.298462
2023-04-09T01:13:29.415Z,5.197754
2023-04-09T01:16:54.783Z,5.127258
2023-04-09T01:20:19.927Z,5.056763
2023-04-09T01:23:45.227Z,5.016479
2023-04-09T01:27:10.473Z,4.915771
2023-04-09T01:30:35.806Z,4.845276
2023-04-09T01:34:00.946Z,4.815063
2023-04-09T01:37:26.171Z,4.875488
2023-04-09T01:40:51.433Z,4.986267
2023-04-09T01:44:16.694Z,5.097046
2023-04-09T01:47:42.556Z,5.167542
2023-04-09T01:51:07.811Z,5.238037
2023-04-09T01:54:33.084Z,5.26825
2023-04-09T01:57:58.361Z,5.238037
2023-04-09T02:01:23.688Z,5.328674
2023-04-09T02:04:48.867Z,5.177612
2023-04-09T02:08:14.108Z,5.127258
2023-04-09T02:11:39.361Z,4.905701
2023-04-09T02:15:04.622Z,4.804993
2023-04-09T02:18:29.827Z,4.593506
2023-04-09T02:21:55.067Z,4.603577
2023-04-09T02:25:20.333Z,4.623718
2023-04-09T02:28:45.579Z,4.603577
2023-04-09T02:32:10.864Z,4.734497
2023-04-09T02:35:36.097Z,4.784851
2023-04-09T02:39:01.320Z,4.804993
2023-04-09T02:42:26.572Z,4.754639
2023-04-09T02:45:51.810Z,4.664001
2023-04-09T02:49:17.097Z,4.603577
2023-04-09T02:52:42.300Z,4.694214
2023-04-09T02:56:07.545Z,4.543152
2023-04-09T02:59:32.762Z,4.553223
2023-04-09T03:02:58.147Z,4.623718
2023-04-09T03:06:23.266Z,4.734497
2023-04-09T03:09:48.485Z,4.694214
2023-04-09T03:13:13.738Z,4.704285
2023-04-09T03:16:38.985Z,4.653931
2023-04-09T03:20:04.248Z,4.452515
2023-04-09T03:23:29.504Z,4.321594
2023-04-09T03:26:54.721Z,4.160461
2023-04-09T03:30:19.938Z,4.230957
2023-04-09T03:33:45.183Z,4.27124
2023-04-09T03:37:10.461Z,4.402161
2023-04-09T03:40:35.724Z,4.583435
2023-04-09T03:44:00.953Z,4.402161
2023-04-09T03:47:26.203Z,4.331665
2023-04-09T03:50:51.422Z,4.371948
2023-04-09T03:54:16.655Z,4.301453
2023-04-09T03:57:41.929Z,4.261169
2023-04-09T04:01:07.176Z,4.150391
2023-04-09T04:04:32.427Z,4.120178
2023-04-09T04:07:57.680Z,4.079895
2023-04-09T04:11:22.889Z,4.220886
2023-04-09T04:14:48.154Z,4.220886
2023-04-09T04:18:13.371Z,3.999329
2023-04-09T04:21:38.651Z,3.898621
2023-04-09T04:25:03.897Z,3.777771
2023-04-09T04:28:29.113Z,3.838196
2023-04-09T04:31:54.421Z,3.938904
2023-04-09T04:35:19.713Z,4.059753
2023-04-09T04:38:44.906Z,4.079895
2023-04-09T04:42:10.150Z,4.120178
2023-04-09T04:45:35.446Z,4.241028
2023-04-09T04:49:00.733Z,4.261169
2023-04-09T04:52:25.972Z,4.261169
2023-04-09T04:55:51.190Z,4.241028
2023-04-09T04:59:16.461Z,4.261169
2023-04-09T05:02:41.723Z,4.261169
2023-04-09T05:06:06.952Z,4.301453
2023-04-09T05:09:32.145Z,4.200745
2023-04-09T05:12:57.390Z,4.14032
2023-04-09T05:16:22.660Z,4.160461
2023-04-09T05:19:47.843Z,4.120178
2023-04-09T05:23:13.113Z,3.969116
2023-04-09T05:26:38.301Z,3.928833
2023-04-09T05:30:03.566Z,3.878479
2023-04-09T05:33:28.686Z,3.898621
2023-04-09T05:36:53.888Z,3.868408
2023-04-09T05:40:19.073Z,3.878479
2023-04-09T05:43:44.237Z,3.928833
2023-04-09T05:47:09.423Z,3.898621
2023-04-09T05:50:43.867Z,3.797913
2023-04-09T05:53:59.790Z,3.727417
2023-04-09T05:57:25.321Z,3.757629
2023-04-09T06:00:51.282Z,3.797913
2023-04-09T06:04:20.682Z,3.858337
2023-04-09T06:07:47.719Z,3.878479
2023-04-09T06:11:12.970Z,3.908691
2023-04-09T06:14:38.367Z,4.059753
2023-04-09T06:18:03.728Z,4.261169
2023-04-09T06:21:28.977Z,4.502869
2023-04-09T06:24:54.337Z,4.704285
2023-04-09T06:28:19.809Z,4.885559
2023-04-09T06:31:45.089Z,5.086975
2023-04-09T06:35:11.112Z,5.298462
2023-04-09T06:38:35.946Z,5.449524
2023-04-09T06:42:01.140Z,5.580444
2023-04-09T06:45:26.331Z,5.711365
2023-04-09T06:48:51.580Z,5.832214
2023-04-09T06:52:16.717Z,5.963135
2023-04-09T06:55:42.178Z,6.094055
2023-04-09T06:59:07.365Z,6.03363
2023-04-09T07:02:32.758Z,6.094055
2023-04-09T07:05:57.862Z,6.325684
2023-04-09T07:09:23.057Z,6.40625
2023-04-09T07:12:48.276Z,6.355896
2023-04-09T07:16:13.695Z,6.083984
2023-04-09T07:19:38.930Z,6.003418
2023-04-09T07:23:04.236Z,6.174622
2023-04-09T07:26:29.606Z,6.083984
2023-04-09T07:29:54.899Z,5.640869
2023-04-09T07:33:20.323Z,5.681152
2023-04-09T07:36:45.580Z,5.791931
2023-04-09T07:40:10.917Z,5.862427
2023-04-09T07:43:36.205Z,6.013489
2023-04-09T07:47:01.446Z,6.265259
2023-04-09T07:50:26.553Z,6.436462
2023-04-09T07:53:51.768Z,6.426392
2023-04-09T07:57:17.069Z,6.335754
2023-04-09T08:00:42.313Z,6.355896
2023-04-09T08:04:07.572Z,6.396179
2023-04-09T08:07:32.759Z,6.637878
2023-04-09T08:10:58.001Z,6.758728
2023-04-09T08:14:23.302Z,6.768799
2023-04-09T08:17:49.343Z,7.03064
2023-04-09T08:21:15.009Z,7.232056
2023-04-09T08:24:40.296Z,7.53418
2023-04-09T08:28:06.240Z,7.735596
2023-04-09T08:31:31.560Z,7.463684
2023-04-09T08:34:56.685Z,7.463684
2023-04-09T08:38:21.841Z,7.644958
2023-04-09T08:41:47.015Z,7.584534
2023-04-09T08:45:12.318Z,7.675171
2023-04-09T08:48:37.783Z,7.886658
2023-04-09T08:52:02.960Z,8.017578
2023-04-09T08:55:28.229Z,7.91687
2023-04-09T08:58:53.711Z,7.926941
2023-04-09T09:02:18.968Z,8.148499
2023-04-09T09:05:44.312Z,8.098145
2023-04-09T09:09:09.643Z,8.249207
2023-04-09T09:12:34.911Z,8.430481
2023-04-09T09:16:00.265Z,8.440552
2023-04-09T09:19:25.601Z,8.591614
2023-04-09T09:22:54.818Z,8.652039
2023-04-09T09:26:16.232Z,8.712463
2023-04-09T09:29:41.556Z,8.843384
2023-04-09T09:33:06.862Z,9.075012
2023-04-09T09:36:32.354Z,9.326782
2023-04-09T09:39:58.424Z,9.467773
2023-04-09T09:43:40.191Z,9.709473
2023-04-09T09:47:19.057Z,9.840393
2023-04-09T09:50:57.310Z,9.991455
2023-04-09T09:54:36.332Z,10.112305
2023-04-09T09:58:09.960Z,10.112305
2023-04-09T10:01:44.184Z,10.142517
2023-04-09T10:05:46.104Z,9.93103
2023-04-09T10:09:38.936Z,9.900818
2023-04-09T10:15:06.376Z,9.890747
2023-04-09T10:18:31.791Z,9.941101
2023-04-09T10:22:00.134Z,10.233154
2023-04-09T10:25:25.385Z,10.4245
2023-04-09T10:28:50.776Z,10.384216
2023-04-09T10:32:15.965Z,10.474854
2023-04-09T10:35:41.254Z,10.545349
2023-04-09T10:39:06.504Z,10.666199
2023-04-09T10:42:31.783Z,10.706482
2023-04-09T10:45:57.096Z,10.756836
2023-04-09T10:49:22.427Z,10.988464
2023-04-09T10:52:48.627Z,10.857544
2023-04-09T10:56:14.960Z,10.837402
2023-04-09T10:59:41.699Z,10.907898
2023-04-09T11:03:07.605Z,11.18988
2023-04-09T11:06:33.340Z,11.280518
2023-04-09T11:09:59.417Z,11.028748
2023-04-09T11:13:25.481Z,10.736694
2023-04-09T11:16:51.622Z,10.706482
2023-04-09T11:20:17.759Z,10.515137
2023-04-09T11:23:44.011Z,10.414429
2023-04-09T11:27:10.346Z,10.414429
2023-04-09T11:30:36.755Z,10.605774
2023-04-09T11:34:03.213Z,10.907898
2023-04-09T11:37:29.814Z,11.210022
2023-04-09T11:40:56.712Z,10.837402
2023-04-09T11:44:23.268Z,10.756836
2023-04-09T11:47:50.095Z,10.595703
2023-04-09T11:51:16.996Z,10.4245
2023-04-09T11:54:44.046Z,10.384216
2023-04-09T11:58:11.146Z,10.515137
2023-04-09T12:01:38.157Z,10.726624
2023-04-09T12:05:05.198Z,10.958252
2023-04-09T12:08:32.001Z,11.169739
2023-04-09T12:11:59.480Z,11.240234
2023-04-09T12:15:26.838Z,11.361084
2023-04-09T12:18:53.202Z,11.290588
2023-04-09T12:22:18.831Z,11.44165
2023-04-09T12:25:45.357Z,11.612854
2023-04-09T12:29:11.579Z,11.703491
2023-04-09T12:32:37.480Z,11.804199
2023-04-09T12:36:03.178Z,11.904907
2023-04-09T12:39:28.743Z,11.914978
2023-04-09T12:42:54.419Z,11.904907
2023-04-09T12:46:19.994Z,11.975403
2023-04-09T12:49:45.556Z,11.914978
2023-04-09T12:53:11.178Z,11.854553
2023-04-09T12:56:36.822Z,11.955261
2023-04-09T13:00:02.852Z,12.086182
2023-04-09T13:03:42.477Z,12.156677
2023-04-09T13:07:46.439Z,12.277527
2023-04-09T13:11:25.921Z,12.287598
2023-04-09T13:15:13.716Z,12.458801
2023-04-09T13:23:19.486Z,12.599792
2023-04-09T13:26:46.041Z,12.640076
2023-04-09T13:30:12.976Z,12.529297
2023-04-09T13:33:42.000Z,12.378235
2023-04-09T13:37:11.649Z,12.378235
2023-04-09T13:40:41.624Z,12.468872
2023-04-09T13:44:12.017Z,12.559509
2023-04-09T13:47:42.153Z,12.599792
2023-04-09T13:51:11.594Z,12.7005
2023-04-09T13:54:40.787Z,12.861633
2023-04-09T13:58:09.717Z,12.670288
2023-04-09T14:01:35.727Z,12.408447
2023-04-09T14:05:01.342Z,12.156677
2023-04-09T14:08:27.081Z,11.975403
2023-04-09T14:11:54.757Z,11.904907
2023-04-09T14:15:20.462Z,11.914978
2023-04-09T14:18:46.213Z,11.824341
2023-04-09T14:22:11.839Z,11.784058
2023-04-09T14:25:37.461Z,11.723633
2023-04-09T14:29:02.965Z,11.612854
2023-04-09T14:32:28.850Z,11.552429
2023-04-09T14:35:54.433Z,11.471863
2023-04-09T14:39:20.121Z,11.44165
2023-04-09T14:42:47.219Z,11.43158
2023-04-09T14:46:13.968Z,11.492004
2023-04-09T14:49:39.735Z,11.522217
2023-04-09T14:53:05.639Z,11.612854
2023-04-09T14:56:31.997Z,11.703491
2023-04-09T14:59:58.944Z,11.824341
2023-04-09T15:03:25.467Z,11.824341
2023-04-09T15:40:12.602Z,11.582642
2023-04-09T15:43:37.790Z,11.572571
2023-04-09T15:47:03.163Z,11.492004
2023-04-09T15:50:28.482Z,11.542358
2023-04-09T15:53:53.790Z,11.552429
2023-04-09T15:57:19.123Z,11.512146
2023-04-09T16:00:44.443Z,11.471863
2023-04-09T16:04:09.752Z,11.471863
2023-04-09T16:07:35.048Z,11.512146
2023-04-09T16:11:00.390Z,11.522217
2023-04-09T16:14:25.699Z,11.522217
2023-04-09T16:17:51.011Z,11.512146
2023-04-09T16:21:16.310Z,11.522217
2023-04-09T16:24:41.614Z,11.43158
2023-04-09T16:28:07.007Z,11.461792
2023-04-09T16:31:32.406Z,11.492004
2023-04-09T16:34:57.685Z,11.542358
2023-04-09T16:38:23.119Z,11.44165
2023-04-09T16:41:48.572Z,11.43158
2023-04-09T16:45:14.121Z,11.290588
2023-04-09T16:48:42.158Z,11.250305
2023-04-09T16:52:08.566Z,11.109314
2023-04-09T16:55:34.906Z,10.887756
2023-04-09T16:59:00.872Z,10.696411
2023-04-09T17:02:26.892Z,10.55542
2023-04-09T17:05:52.752Z,10.404358
2023-04-09T17:09:19.310Z,10.202942
2023-04-09T17:12:47.614Z,10.011597
2023-04-09T17:16:13.728Z,9.860535
2023-04-09T17:19:41.775Z,9.709473
2023-04-09T17:23:07.259Z,9.578552
2023-04-09T17:26:35.482Z,9.578552
2023-04-09T17:30:01.264Z,9.558411
2023-04-09T17:33:54.896Z,9.377136
2023-04-09T17:37:20.741Z,9.236145
2023-04-09T17:41:10.601Z,9.125366
2023-04-09T17:44:36.880Z,9.105225
2023-04-09T17:48:03.083Z,8.994446
2023-04-09T17:51:31.198Z,8.772888
2023-04-09T17:54:58.262Z,8.631897
2023-04-09T17:58:24.228Z,8.581543
2023-04-09T18:01:50.813Z,8.430481
2023-04-09T18:05:20.936Z,8.410339
2023-04-09T18:08:54.507Z,8.370056
2023-04-09T18:12:27.975Z,8.440552
2023-04-09T18:16:04.949Z,8.370056
2023-04-09T18:19:34.749Z,8.098145
2023-04-09T18:23:01.222Z,7.826233
2023-04-09T18:26:27.545Z,7.524109
2023-04-09T18:29:53.906Z,7.242126
2023-04-09T18:33:20.588Z,6.970215
2023-04-09T18:36:47.300Z,6.617737
2023-04-09T18:40:14.659Z,6.40625
2023-04-09T18:43:43.858Z,6.325684
2023-04-09T18:47:11.345Z,6.245117
2023-04-09T18:50:39.120Z,6.456604
2023-04-09T18:54:06.776Z,6.456604
2023-04-09T18:57:33.434Z,6.396179
2023-04-09T19:01:00.293Z,6.547241
2023-04-09T19:04:27.299Z,6.53717
2023-04-09T19:07:54.068Z,6.396179
2023-04-09T19:11:20.505Z,6.265259
2023-04-09T19:14:47.095Z,6.083984
2023-04-09T19:18:13.915Z,6.013489
2023-04-09T19:21:40.612Z,6.083984
2023-04-09T19:25:07.076Z,6.124268
2023-04-09T19:28:33.642Z,6.144409
2023-04-09T19:32:00.575Z,6.003418
2023-04-09T19:35:27.256Z,5.963135
2023-04-09T19:38:53.760Z,5.993347
2023-04-09T19:42:19.959Z,5.993347
2023-04-09T19:45:46.161Z,5.993347
2023-04-09T19:49:12.692Z,5.942993
2023-04-09T19:52:38.975Z,5.832214
2023-04-09T19:56:05.388Z,5.681152
2023-04-09T19:59:31.512Z,5.610657
2023-04-09T20:02:57.833Z,5.560303
2023-04-09T20:06:23.995Z,5.610657
2023-04-09T20:09:50.173Z,5.65094
2023-04-09T20:13:16.529Z,5.610657
2023-04-09T20:16:42.747Z,5.489807
2023-04-09T20:20:08.790Z,5.53009
2023-04-09T20:23:34.839Z,5.570374
2023-04-09T20:27:00.747Z,5.600586
2023-04-09T20:30:29.372Z,5.600586
2023-04-09T20:33:56.237Z,5.509949
2023-04-09T20:37:22.123Z,5.509949
2023-04-09T20:40:48.100Z,5.53009
2023-04-09T20:44:13.928Z,5.53009
2023-04-09T20:47:42.688Z,5.308533
2023-04-09T20:51:08.623Z,5.197754
2023-04-09T20:54:34.537Z,5.167542
2023-04-09T20:58:00.436Z,5.1474
2023-04-09T21:01:26.426Z,5.207825
2023-04-09T21:04:52.307Z,5.298462
2023-04-09T21:08:18.264Z,5.238037
2023-04-09T21:11:44.316Z,5.086975
2023-04-09T21:15:10.226Z,4.915771
2023-04-09T21:18:36.096Z,4.966125
2023-04-09T21:22:01.919Z,5.086975
2023-04-09T21:25:27.755Z,5.086975
2023-04-09T21:28:53.731Z,5.036621
2023-04-09T21:32:19.530Z,4.956055
2023-04-09T21:35:45.466Z,4.915771
2023-04-09T21:39:12.339Z,4.996338
2023-04-09T21:43:10.445Z,4.996338
2023-04-09T21:46:37.027Z,4.966125
2023-04-09T21:50:02.278Z,4.875488
2023-04-09T21:53:27.741Z,4.704285
2023-04-09T21:56:53.158Z,4.553223
2023-04-09T22:00:20.836Z,4.502869
2023-04-09T22:03:49.258Z,4.472656
2023-04-09T22:07:16.013Z,4.482727
2023-04-09T22:10:45.742Z,4.512939
2023-04-09T22:14:11.147Z,4.512939
2023-04-09T22:17:36.774Z,4.543152
2023-04-09T22:21:02.153Z,4.482727
2023-04-09T22:24:27.521Z,4.442444
2023-04-09T22:27:53.200Z,4.452515
2023-04-09T22:31:18.575Z,4.422302
2023-04-09T22:34:44.190Z,4.422302
2023-04-09T22:38:09.576Z,4.301453
2023-04-09T22:41:34.975Z,4.291382
2023-04-09T22:45:00.376Z,4.301453
2023-04-09T22:48:25.715Z,4.27124
2023-04-09T22:51:51.086Z,4.200745
2023-04-09T23:00:18.400Z,4.120178
2023-04-09T23:03:43.819Z,4.110107
2023-04-09T23:14:38.336Z,3.908691
2023-04-09T23:20:24.836Z,4.01947
2023-04-09T23:25:40.887Z,4.089966
2023-04-09T23:29:06.504Z,4.14032
2023-04-09T23:32:56.344Z,4.089966
2023-04-09T23:36:20.130Z,4.089966
2023-04-09T23:39:46.849Z,4.110107
2023-04-09T23:43:13.157Z,4.150391
2023-04-09T23:46:38.518Z,4.110107
2023-04-09T23:50:04.219Z,3.999329
2023-04-09T23:53:29.430Z,3.878479
2023-04-09T23:56:54.631Z,3.858337
